sensor_id;sensor_type;location;lat;lon;timestamp;temperature;humidity
10654;DHT22;5375;51.250;6.776;2023-01-29T00:01:17;18.70;41.70
10654;DHT22;5375;51.250;6.776;2023-01-29T00:03:42;18.70;41.70
10654;DHT22;5375;51.250;6.776;2023-01-29T00:06:08;18.70;41.60
10654;DHT22;5375;51.250;6.776;2023-01-29T00:08:35;18.70;41.60
10654;DHT22;5375;51.250;6.776;2023-01-29T00:11:06;18.70;41.50
10654;DHT22;5375;51.250;6.776;2023-01-29T00:13:32;18.70;41.50
10654;DHT22;5375;51.250;6.776;2023-01-29T00:16:01;18.70;41.40
10654;DHT22;5375;51.250;6.776;2023-01-29T00:18:27;18.60;41.30
10654;DHT22;5375;51.250;6.776;2023-01-29T00:20:54;18.70;41.30
10654;DHT22;5375;51.250;6.776;2023-01-29T00:23:20;18.80;41.30
10654;DHT22;5375;51.250;6.776;2023-01-29T00:25:47;18.60;41.10
10654;DHT22;5375;51.250;6.776;2023-01-29T00:28:14;18.60;41.00
10654;DHT22;5375;51.250;6.776;2023-01-29T00:30:40;18.60;41.00
10654;DHT22;5375;51.250;6.776;2023-01-29T00:33:06;18.60;41.00
10654;DHT22;5375;51.250;6.776;2023-01-29T00:35:31;18.30;40.70
10654;DHT22;5375;51.250;6.776;2023-01-29T00:37:57;18.60;40.80
10654;DHT22;5375;51.250;6.776;2023-01-29T00:40:26;18.60;40.90
10654;DHT22;5375;51.250;6.776;2023-01-29T00:42:52;18.60;40.70
10654;DHT22;5375;51.250;6.776;2023-01-29T00:45:37;18.60;40.70
10654;DHT22;5375;51.250;6.776;2023-01-29T00:48:03;18.60;40.60
10654;DHT22;5375;51.250;6.776;2023-01-29T00:50:29;18.60;40.60
10654;DHT22;5375;51.250;6.776;2023-01-29T00:52:55;18.60;40.50
10654;DHT22;5375;51.250;6.776;2023-01-29T00:55:21;18.60;40.50
10654;DHT22;5375;51.250;6.776;2023-01-29T00:57:47;18.60;40.50
10654;DHT22;5375;51.250;6.776;2023-01-29T01:00:15;18.60;40.40
10654;DHT22;5375;51.250;6.776;2023-01-29T01:02:41;18.50;40.30
10654;DHT22;5375;51.250;6.776;2023-01-29T01:05:25;18.50;40.30
10654;DHT22;5375;51.250;6.776;2023-01-29T01:07:53;18.60;40.30
10654;DHT22;5375;51.250;6.776;2023-01-29T01:10:22;18.50;40.20
10654;DHT22;5375;51.250;6.776;2023-01-29T01:12:57;18.50;40.20
10654;DHT22;5375;51.250;6.776;2023-01-29T01:15:25;18.50;40.10
10654;DHT22;5375;51.250;6.776;2023-01-29T01:17:57;18.50;40.10
10654;DHT22;5375;51.250;6.776;2023-01-29T01:20:24;18.50;40.10
10654;DHT22;5375;51.250;6.776;2023-01-29T01:22:52;18.50;40.10
10654;DHT22;5375;51.250;6.776;2023-01-29T01:25:19;18.50;40.10
10654;DHT22;5375;51.250;6.776;2023-01-29T01:27:44;18.50;40.00
10654;DHT22;5375;51.250;6.776;2023-01-29T01:30:13;18.50;40.00
10654;DHT22;5375;51.250;6.776;2023-01-29T01:32:39;18.50;39.90
10654;DHT22;5375;51.250;6.776;2023-01-29T01:35:06;18.40;39.90
10654;DHT22;5375;51.250;6.776;2023-01-29T01:37:32;18.40;39.80
10654;DHT22;5375;51.250;6.776;2023-01-29T01:39:57;18.40;39.80
10654;DHT22;5375;51.250;6.776;2023-01-29T01:42:28;18.50;39.80
10654;DHT22;5375;51.250;6.776;2023-01-29T01:44:59;18.40;39.70
10654;DHT22;5375;51.250;6.776;2023-01-29T01:50:03;18.50;39.80
10654;DHT22;5375;51.250;6.776;2023-01-29T01:52:32;18.50;39.70
10654;DHT22;5375;51.250;6.776;2023-01-29T01:54:58;18.40;39.70
10654;DHT22;5375;51.250;6.776;2023-01-29T01:57:25;18.40;39.60
10654;DHT22;5375;51.250;6.776;2023-01-29T02:00:06;18.40;39.60
10654;DHT22;5375;51.250;6.776;2023-01-29T02:02:38;18.40;39.60
10654;DHT22;5375;51.250;6.776;2023-01-29T02:05:25;18.40;39.60
10654;DHT22;5375;51.250;6.776;2023-01-29T02:08:10;18.40;39.60
10654;DHT22;5375;51.250;6.776;2023-01-29T02:10:55;18.40;39.60
10654;DHT22;5375;51.250;6.776;2023-01-29T02:13:21;18.40;39.60
10654;DHT22;5375;51.250;6.776;2023-01-29T02:15:47;18.40;39.50
10654;DHT22;5375;51.250;6.776;2023-01-29T02:18:15;18.30;39.40
10654;DHT22;5375;51.250;6.776;2023-01-29T02:20:47;18.30;39.40
10654;DHT22;5375;51.250;6.776;2023-01-29T02:26:28;18.30;39.40
10654;DHT22;5375;51.250;6.776;2023-01-29T02:29:04;18.30;39.40
10654;DHT22;5375;51.250;6.776;2023-01-29T02:37:24;18.30;39.40
10654;DHT22;5375;51.250;6.776;2023-01-29T02:40:11;18.30;39.30
10654;DHT22;5375;51.250;6.776;2023-01-29T02:42:52;18.30;39.30
10654;DHT22;5375;51.250;6.776;2023-01-29T02:45:27;18.30;39.30
10654;DHT22;5375;51.250;6.776;2023-01-29T02:47:58;18.30;39.30
10654;DHT22;5375;51.250;6.776;2023-01-29T02:50:37;18.30;39.30
10654;DHT22;5375;51.250;6.776;2023-01-29T02:53:15;18.30;39.20
10654;DHT22;5375;51.250;6.776;2023-01-29T02:58:29;20.20;40.10
10654;DHT22;5375;51.250;6.776;2023-01-29T03:01:01;18.30;39.20
10654;DHT22;5375;51.250;6.776;2023-01-29T03:03:51;18.20;39.10
10654;DHT22;5375;51.250;6.776;2023-01-29T03:06:23;18.10;39.00
10654;DHT22;5375;51.250;6.776;2023-01-29T03:11:44;18.20;39.10
10654;DHT22;5375;51.250;6.776;2023-01-29T03:14:34;18.20;39.10
10654;DHT22;5375;51.250;6.776;2023-01-29T03:17:23;18.20;39.00
10654;DHT22;5375;51.250;6.776;2023-01-29T03:19:51;18.20;39.00
10654;DHT22;5375;51.250;6.776;2023-01-29T03:22:17;18.20;39.00
10654;DHT22;5375;51.250;6.776;2023-01-29T03:25:04;18.30;39.00
10654;DHT22;5375;51.250;6.776;2023-01-29T03:27:56;18.20;38.90
10654;DHT22;5375;51.250;6.776;2023-01-29T03:30:54;18.20;39.00
10654;DHT22;5375;51.250;6.776;2023-01-29T03:34:08;18.20;38.90
10654;DHT22;5375;51.250;6.776;2023-01-29T03:37:02;18.20;38.90
10654;DHT22;5375;51.250;6.776;2023-01-29T03:39:32;18.20;38.90
10654;DHT22;5375;51.250;6.776;2023-01-29T03:50:51;18.10;38.80
10654;DHT22;5375;51.250;6.776;2023-01-29T03:53:23;18.10;38.80
10654;DHT22;5375;51.250;6.776;2023-01-29T03:58:49;18.10;38.80
10654;DHT22;5375;51.250;6.776;2023-01-29T04:01:24;18.10;38.80
10654;DHT22;5375;51.250;6.776;2023-01-29T04:04:03;18.00;38.70
10654;DHT22;5375;51.250;6.776;2023-01-29T04:06:33;18.10;38.80
10654;DHT22;5375;51.250;6.776;2023-01-29T04:09:08;18.10;38.80
10654;DHT22;5375;51.250;6.776;2023-01-29T04:11:37;18.10;38.70
10654;DHT22;5375;51.250;6.776;2023-01-29T04:14:06;18.10;38.70
10654;DHT22;5375;51.250;6.776;2023-01-29T04:16:36;18.10;38.70
10654;DHT22;5375;51.250;6.776;2023-01-29T04:19:04;18.10;38.70
10654;DHT22;5375;51.250;6.776;2023-01-29T04:21:30;18.10;38.60
10654;DHT22;5375;51.250;6.776;2023-01-29T04:24:04;18.10;38.70
10654;DHT22;5375;51.250;6.776;2023-01-29T04:29:19;18.10;38.60
10654;DHT22;5375;51.250;6.776;2023-01-29T04:32:24;18.10;38.60
10654;DHT22;5375;51.250;6.776;2023-01-29T04:37:45;18.00;38.60
10654;DHT22;5375;51.250;6.776;2023-01-29T04:43:08;18.00;38.60
10654;DHT22;5375;51.250;6.776;2023-01-29T04:48:31;18.00;38.60
10654;DHT22;5375;51.250;6.776;2023-01-29T04:51:17;18.10;38.60
10654;DHT22;5375;51.250;6.776;2023-01-29T04:56:28;18.10;38.50
10654;DHT22;5375;51.250;6.776;2023-01-29T04:59:03;18.10;38.60
10654;DHT22;5375;51.250;6.776;2023-01-29T05:01:30;18.10;38.50
10654;DHT22;5375;51.250;6.776;2023-01-29T05:04:00;18.10;38.50
10654;DHT22;5375;51.250;6.776;2023-01-29T05:06:29;18.20;38.60
10654;DHT22;5375;51.250;6.776;2023-01-29T05:08:56;18.20;38.60
10654;DHT22;5375;51.250;6.776;2023-01-29T05:11:23;17.80;38.60
10654;DHT22;5375;51.250;6.776;2023-01-29T05:13:49;18.10;39.10
10654;DHT22;5375;51.250;6.776;2023-01-29T05:16:26;18.20;40.00
10654;DHT22;5375;51.250;6.776;2023-01-29T05:18:53;18.20;39.60
10654;DHT22;5375;51.250;6.776;2023-01-29T05:21:19;18.30;39.80
10654;DHT22;5375;51.250;6.776;2023-01-29T05:24:08;18.30;39.70
10654;DHT22;5375;51.250;6.776;2023-01-29T05:26:34;18.30;39.60
10654;DHT22;5375;51.250;6.776;2023-01-29T05:29:20;18.30;39.50
10654;DHT22;5375;51.250;6.776;2023-01-29T05:31:46;18.30;39.40
10654;DHT22;5375;51.250;6.776;2023-01-29T05:34:11;18.30;39.50
10654;DHT22;5375;51.250;6.776;2023-01-29T05:36:37;18.40;39.50
10654;DHT22;5375;51.250;6.776;2023-01-29T05:39:02;18.40;40.10
10654;DHT22;5375;51.250;6.776;2023-01-29T05:41:28;18.30;39.40
10654;DHT22;5375;51.250;6.776;2023-01-29T05:43:53;18.40;40.10
10654;DHT22;5375;51.250;6.776;2023-01-29T05:46:19;18.40;39.50
10654;DHT22;5375;51.250;6.776;2023-01-29T05:48:45;18.40;39.50
10654;DHT22;5375;51.250;6.776;2023-01-29T05:51:10;18.40;39.40
10654;DHT22;5375;51.250;6.776;2023-01-29T05:53:36;18.40;39.40
10654;DHT22;5375;51.250;6.776;2023-01-29T05:56:03;18.40;39.50
10654;DHT22;5375;51.250;6.776;2023-01-29T05:58:32;18.40;39.50
10654;DHT22;5375;51.250;6.776;2023-01-29T06:01:10;18.40;39.50
10654;DHT22;5375;51.250;6.776;2023-01-29T06:03:36;18.40;39.50
10654;DHT22;5375;51.250;6.776;2023-01-29T06:06:01;18.50;39.60
10654;DHT22;5375;51.250;6.776;2023-01-29T06:08:27;18.50;39.50
10654;DHT22;5375;51.250;6.776;2023-01-29T06:10:52;18.50;39.50
10654;DHT22;5375;51.250;6.776;2023-01-29T06:13:18;18.50;39.50
10654;DHT22;5375;51.250;6.776;2023-01-29T06:15:43;18.60;39.60
10654;DHT22;5375;51.250;6.776;2023-01-29T06:18:09;18.60;40.20
10654;DHT22;5375;51.250;6.776;2023-01-29T06:20:35;18.50;39.50
10654;DHT22;5375;51.250;6.776;2023-01-29T06:23:01;18.50;39.60
10654;DHT22;5375;51.250;6.776;2023-01-29T06:25:27;18.50;39.50
10654;DHT22;5375;51.250;6.776;2023-01-29T06:27:52;18.50;39.50
10654;DHT22;5375;51.250;6.776;2023-01-29T06:30:18;18.50;39.50
10654;DHT22;5375;51.250;6.776;2023-01-29T06:32:43;18.50;39.50
10654;DHT22;5375;51.250;6.776;2023-01-29T06:35:09;18.60;39.60
10654;DHT22;5375;51.250;6.776;2023-01-29T06:37:35;18.50;39.70
10654;DHT22;5375;51.250;6.776;2023-01-29T06:40:01;18.60;40.10
10654;DHT22;5375;51.250;6.776;2023-01-29T06:42:27;18.60;40.10
10654;DHT22;5375;51.250;6.776;2023-01-29T06:44:55;18.60;40.10
10654;DHT22;5375;51.250;6.776;2023-01-29T06:47:22;18.60;40.00
10654;DHT22;5375;51.250;6.776;2023-01-29T06:49:48;18.60;40.00
10654;DHT22;5375;51.250;6.776;2023-01-29T06:52:14;18.60;39.90
10654;DHT22;5375;51.250;6.776;2023-01-29T06:54:39;18.60;39.90
10654;DHT22;5375;51.250;6.776;2023-01-29T06:57:05;18.60;40.00
10654;DHT22;5375;51.250;6.776;2023-01-29T06:59:30;18.60;40.20
10654;DHT22;5375;51.250;6.776;2023-01-29T07:01:56;18.60;40.40
10654;DHT22;5375;51.250;6.776;2023-01-29T07:04:22;18.60;40.50
10654;DHT22;5375;51.250;6.776;2023-01-29T07:06:47;18.60;40.60
10654;DHT22;5375;51.250;6.776;2023-01-29T07:09:13;18.60;40.70
10654;DHT22;5375;51.250;6.776;2023-01-29T07:11:39;18.60;40.80
10654;DHT22;5375;51.250;6.776;2023-01-29T07:14:05;18.60;40.90
10654;DHT22;5375;51.250;6.776;2023-01-29T07:16:30;18.60;40.90
10654;DHT22;5375;51.250;6.776;2023-01-29T07:18:56;18.60;41.00
10654;DHT22;5375;51.250;6.776;2023-01-29T07:21:22;18.70;41.10
10654;DHT22;5375;51.250;6.776;2023-01-29T07:23:47;18.70;41.20
10654;DHT22;5375;51.250;6.776;2023-01-29T07:26:13;18.70;41.20
10654;DHT22;5375;51.250;6.776;2023-01-29T07:28:39;18.60;41.20
10654;DHT22;5375;51.250;6.776;2023-01-29T07:31:05;18.70;41.30
10654;DHT22;5375;51.250;6.776;2023-01-29T07:33:32;18.80;41.50
10654;DHT22;5375;51.250;6.776;2023-01-29T07:35:58;18.70;41.40
10654;DHT22;5375;51.250;6.776;2023-01-29T07:38:23;18.70;41.50
10654;DHT22;5375;51.250;6.776;2023-01-29T07:40:51;18.70;41.50
10654;DHT22;5375;51.250;6.776;2023-01-29T07:43:16;18.70;41.60
10654;DHT22;5375;51.250;6.776;2023-01-29T07:45:42;18.70;41.60
10654;DHT22;5375;51.250;6.776;2023-01-29T07:48:10;18.70;41.70
10654;DHT22;5375;51.250;6.776;2023-01-29T07:50:37;18.70;41.70
10654;DHT22;5375;51.250;6.776;2023-01-29T07:53:02;18.70;41.80
10654;DHT22;5375;51.250;6.776;2023-01-29T07:55:28;18.70;41.80
10654;DHT22;5375;51.250;6.776;2023-01-29T07:58:02;18.80;42.00
10654;DHT22;5375;51.250;6.776;2023-01-29T08:00:28;18.80;41.90
10654;DHT22;5375;51.250;6.776;2023-01-29T08:03:05;18.80;42.00
10654;DHT22;5375;51.250;6.776;2023-01-29T08:05:31;18.80;42.10
10654;DHT22;5375;51.250;6.776;2023-01-29T08:07:57;18.90;42.00
10654;DHT22;5375;51.250;6.776;2023-01-29T08:10:23;18.80;41.70
10654;DHT22;5375;51.250;6.776;2023-01-29T08:12:57;18.80;41.50
10654;DHT22;5375;51.250;6.776;2023-01-29T08:15:23;18.80;41.40
10654;DHT22;5375;51.250;6.776;2023-01-29T08:17:49;18.80;41.30
10654;DHT22;5375;51.250;6.776;2023-01-29T08:20:15;18.80;41.20
10654;DHT22;5375;51.250;6.776;2023-01-29T08:22:41;18.80;41.10
10654;DHT22;5375;51.250;6.776;2023-01-29T08:25:07;18.80;41.00
10654;DHT22;5375;51.250;6.776;2023-01-29T08:27:33;18.80;41.00
10654;DHT22;5375;51.250;6.776;2023-01-29T08:29:59;18.70;40.90
10654;DHT22;5375;51.250;6.776;2023-01-29T08:32:27;18.80;40.80
10654;DHT22;5375;51.250;6.776;2023-01-29T08:34:52;18.70;40.70
10654;DHT22;5375;51.250;6.776;2023-01-29T08:37:18;18.70;40.70
10654;DHT22;5375;51.250;6.776;2023-01-29T08:39:44;18.70;40.70
10654;DHT22;5375;51.250;6.776;2023-01-29T08:42:09;18.70;40.60
10654;DHT22;5375;51.250;6.776;2023-01-29T08:44:35;18.70;40.60
10654;DHT22;5375;51.250;6.776;2023-01-29T08:47:01;18.70;40.50
10654;DHT22;5375;51.250;6.776;2023-01-29T08:49:27;18.70;40.50
10654;DHT22;5375;51.250;6.776;2023-01-29T08:51:53;18.70;40.50
10654;DHT22;5375;51.250;6.776;2023-01-29T08:54:21;18.70;41.20
10654;DHT22;5375;51.250;6.776;2023-01-29T08:56:47;18.70;40.60
10654;DHT22;5375;51.250;6.776;2023-01-29T08:59:12;18.70;40.50
10654;DHT22;5375;51.250;6.776;2023-01-29T09:01:38;18.70;40.50
10654;DHT22;5375;51.250;6.776;2023-01-29T09:04:04;18.70;40.40
10654;DHT22;5375;51.250;6.776;2023-01-29T09:06:29;18.70;40.40
10654;DHT22;5375;51.250;6.776;2023-01-29T09:08:55;18.70;40.40
10654;DHT22;5375;51.250;6.776;2023-01-29T09:11:21;18.70;40.40
10654;DHT22;5375;51.250;6.776;2023-01-29T09:13:47;18.70;40.40
10654;DHT22;5375;51.250;6.776;2023-01-29T09:16:12;18.70;40.40
10654;DHT22;5375;51.250;6.776;2023-01-29T09:18:38;18.70;40.50
10654;DHT22;5375;51.250;6.776;2023-01-29T09:21:05;18.70;40.40
10654;DHT22;5375;51.250;6.776;2023-01-29T09:23:31;18.70;40.50
10654;DHT22;5375;51.250;6.776;2023-01-29T09:25:57;18.70;40.40
10654;DHT22;5375;51.250;6.776;2023-01-29T09:28:23;18.70;40.40
10654;DHT22;5375;51.250;6.776;2023-01-29T09:30:48;18.60;40.40
10654;DHT22;5375;51.250;6.776;2023-01-29T09:33:14;18.70;40.40
10654;DHT22;5375;51.250;6.776;2023-01-29T09:35:40;18.70;40.50
10654;DHT22;5375;51.250;6.776;2023-01-29T09:38:10;18.70;40.50
10654;DHT22;5375;51.250;6.776;2023-01-29T09:43:59;18.70;40.40
10654;DHT22;5375;51.250;6.776;2023-01-29T09:49:19;18.60;40.40
10654;DHT22;5375;51.250;6.776;2023-01-29T09:52:20;18.60;40.40
10654;DHT22;5375;51.250;6.776;2023-01-29T09:55:07;18.60;40.40
10654;DHT22;5375;51.250;6.776;2023-01-29T09:57:47;18.60;40.40
10654;DHT22;5375;51.250;6.776;2023-01-29T10:00:23;18.60;40.50
10654;DHT22;5375;51.250;6.776;2023-01-29T10:06:02;18.60;40.40
10654;DHT22;5375;51.250;6.776;2023-01-29T10:11:42;18.60;40.50
10654;DHT22;5375;51.250;6.776;2023-01-29T10:19:31;18.70;40.90
10654;DHT22;5375;51.250;6.776;2023-01-29T10:26:52;18.60;40.90
10654;DHT22;5375;51.250;6.776;2023-01-29T10:29:20;18.70;41.70
10654;DHT22;5375;51.250;6.776;2023-01-29T10:31:54;18.70;41.10
10654;DHT22;5375;51.250;6.776;2023-01-29T10:34:32;18.80;41.10
10654;DHT22;5375;51.250;6.776;2023-01-29T10:37:00;18.70;41.10
10654;DHT22;5375;51.250;6.776;2023-01-29T10:39:32;18.80;41.20
10654;DHT22;5375;51.250;6.776;2023-01-29T10:42:39;18.70;41.10
10654;DHT22;5375;51.250;6.776;2023-01-29T10:50:47;18.70;41.30
10654;DHT22;5375;51.250;6.776;2023-01-29T10:53:55;18.70;41.30
10654;DHT22;5375;51.250;6.776;2023-01-29T10:59:08;18.70;41.30
10654;DHT22;5375;51.250;6.776;2023-01-29T11:01:38;18.70;41.40
10654;DHT22;5375;51.250;6.776;2023-01-29T11:04:08;18.70;41.40
10654;DHT22;5375;51.250;6.776;2023-01-29T11:06:36;18.70;41.40
10654;DHT22;5375;51.250;6.776;2023-01-29T11:11:46;18.70;41.30
10654;DHT22;5375;51.250;6.776;2023-01-29T11:14:21;18.70;41.40
10654;DHT22;5375;51.250;6.776;2023-01-29T11:16:48;18.70;41.30
10654;DHT22;5375;51.250;6.776;2023-01-29T11:19:15;18.70;41.30
10654;DHT22;5375;51.250;6.776;2023-01-29T11:21:51;18.80;41.50
10654;DHT22;5375;51.250;6.776;2023-01-29T11:24:18;18.80;41.50
10654;DHT22;5375;51.250;6.776;2023-01-29T11:26:45;18.80;41.40
10654;DHT22;5375;51.250;6.776;2023-01-29T11:29:46;18.80;41.40
10654;DHT22;5375;51.250;6.776;2023-01-29T11:35:19;18.80;41.50
10654;DHT22;5375;51.250;6.776;2023-01-29T11:37:45;18.80;41.50
10654;DHT22;5375;51.250;6.776;2023-01-29T11:42:43;18.80;41.50
10654;DHT22;5375;51.250;6.776;2023-01-29T11:45:27;18.80;41.50
10654;DHT22;5375;51.250;6.776;2023-01-29T11:47:56;18.80;41.50
10654;DHT22;5375;51.250;6.776;2023-01-29T11:50:25;18.80;41.60
10654;DHT22;5375;51.250;6.776;2023-01-29T11:52:51;18.80;41.50
10654;DHT22;5375;51.250;6.776;2023-01-29T11:55:20;18.80;42.20
10654;DHT22;5375;51.250;6.776;2023-01-29T11:57:49;18.80;41.50
10654;DHT22;5375;51.250;6.776;2023-01-29T12:00:19;18.80;41.50
10654;DHT22;5375;51.250;6.776;2023-01-29T12:03:11;18.80;41.40
10654;DHT22;5375;51.250;6.776;2023-01-29T12:05:37;18.80;41.50
10654;DHT22;5375;51.250;6.776;2023-01-29T12:08:15;18.80;41.50
10654;DHT22;5375;51.250;6.776;2023-01-29T12:10:42;18.80;41.40
10654;DHT22;5375;51.250;6.776;2023-01-29T12:15:46;18.80;41.40
10654;DHT22;5375;51.250;6.776;2023-01-29T12:18:24;18.80;41.40
10654;DHT22;5375;51.250;6.776;2023-01-29T12:20:58;18.80;41.30
10654;DHT22;5375;51.250;6.776;2023-01-29T12:23:52;18.90;41.50
10654;DHT22;5375;51.250;6.776;2023-01-29T12:26:39;18.80;41.30
10654;DHT22;5375;51.250;6.776;2023-01-29T12:35:08;18.80;41.30
10654;DHT22;5375;51.250;6.776;2023-01-29T12:40:13;18.80;41.30
10654;DHT22;5375;51.250;6.776;2023-01-29T12:42:42;18.80;41.30
10654;DHT22;5375;51.250;6.776;2023-01-29T12:45:15;18.80;41.30
10654;DHT22;5375;51.250;6.776;2023-01-29T12:47:46;18.80;41.30
10654;DHT22;5375;51.250;6.776;2023-01-29T12:50:42;18.80;41.20
10654;DHT22;5375;51.250;6.776;2023-01-29T12:53:34;18.80;41.20
10654;DHT22;5375;51.250;6.776;2023-01-29T12:56:12;18.80;41.30
10654;DHT22;5375;51.250;6.776;2023-01-29T12:58:45;18.80;41.30
10654;DHT22;5375;51.250;6.776;2023-01-29T13:01:16;18.80;41.30
10654;DHT22;5375;51.250;6.776;2023-01-29T13:06:39;18.80;41.30
10654;DHT22;5375;51.250;6.776;2023-01-29T13:09:12;18.80;41.30
10654;DHT22;5375;51.250;6.776;2023-01-29T13:11:50;18.80;41.30
10654;DHT22;5375;51.250;6.776;2023-01-29T13:14:23;18.80;41.30
10654;DHT22;5375;51.250;6.776;2023-01-29T13:16:56;18.80;41.30
10654;DHT22;5375;51.250;6.776;2023-01-29T13:19:31;18.80;41.20
10654;DHT22;5375;51.250;6.776;2023-01-29T13:22:02;18.80;41.20
10654;DHT22;5375;51.250;6.776;2023-01-29T13:24:40;18.80;41.20
10654;DHT22;5375;51.250;6.776;2023-01-29T13:27:06;18.80;41.20
10654;DHT22;5375;51.250;6.776;2023-01-29T13:29:32;18.80;41.20
10654;DHT22;5375;51.250;6.776;2023-01-29T13:32:03;18.80;41.20
10654;DHT22;5375;51.250;6.776;2023-01-29T13:34:32;18.70;41.20
10654;DHT22;5375;51.250;6.776;2023-01-29T13:37:00;18.80;41.30
10654;DHT22;5375;51.250;6.776;2023-01-29T13:39:34;18.80;41.30
10654;DHT22;5375;51.250;6.776;2023-01-29T13:44:48;18.80;41.30
10654;DHT22;5375;51.250;6.776;2023-01-29T13:47:27;18.80;41.40
10654;DHT22;5375;51.250;6.776;2023-01-29T13:52:43;18.80;41.40
10654;DHT22;5375;51.250;6.776;2023-01-29T13:55:20;18.80;41.50
10654;DHT22;5375;51.250;6.776;2023-01-29T13:57:49;18.80;41.50
10654;DHT22;5375;51.250;6.776;2023-01-29T14:05:42;18.80;41.60
10654;DHT22;5375;51.250;6.776;2023-01-29T14:10:35;18.90;41.90
10654;DHT22;5375;51.250;6.776;2023-01-29T14:18:24;18.90;42.20
10654;DHT22;5375;51.250;6.776;2023-01-29T14:20:55;18.90;42.20
10654;DHT22;5375;51.250;6.776;2023-01-29T14:29:15;18.90;42.20
10654;DHT22;5375;51.250;6.776;2023-01-29T14:31:43;18.90;42.30
10654;DHT22;5375;51.250;6.776;2023-01-29T14:36:44;18.90;42.30
10654;DHT22;5375;51.250;6.776;2023-01-29T14:39:32;18.90;42.30
10654;DHT22;5375;51.250;6.776;2023-01-29T14:42:00;18.90;42.30
10654;DHT22;5375;51.250;6.776;2023-01-29T14:45:08;18.90;42.30
10654;DHT22;5375;51.250;6.776;2023-01-29T14:50:44;18.90;42.40
10654;DHT22;5375;51.250;6.776;2023-01-29T14:53:21;19.00;42.40
10654;DHT22;5375;51.250;6.776;2023-01-29T14:58:48;19.00;42.40
10654;DHT22;5375;51.250;6.776;2023-01-29T15:01:35;17.90;41.90
10654;DHT22;5375;51.250;6.776;2023-01-29T15:04:16;19.00;42.40
10654;DHT22;5375;51.250;6.776;2023-01-29T15:06:46;19.00;42.40
10654;DHT22;5375;51.250;6.776;2023-01-29T15:09:28;19.00;42.40
10654;DHT22;5375;51.250;6.776;2023-01-29T15:15:13;18.90;42.30
10654;DHT22;5375;51.250;6.776;2023-01-29T15:17:48;18.90;42.30
10654;DHT22;5375;51.250;6.776;2023-01-29T15:20:34;18.90;42.30
10654;DHT22;5375;51.250;6.776;2023-01-29T15:23:01;18.90;42.20
10654;DHT22;5375;51.250;6.776;2023-01-29T15:25:35;18.90;42.30
10654;DHT22;5375;51.250;6.776;2023-01-29T15:28:02;18.90;42.20
10654;DHT22;5375;51.250;6.776;2023-01-29T15:30:33;18.90;42.30
10654;DHT22;5375;51.250;6.776;2023-01-29T15:33:00;18.90;42.20
10654;DHT22;5375;51.250;6.776;2023-01-29T15:35:34;18.90;42.20
10654;DHT22;5375;51.250;6.776;2023-01-29T15:38:17;18.90;42.20
10654;DHT22;5375;51.250;6.776;2023-01-29T15:40:57;18.90;42.20
10654;DHT22;5375;51.250;6.776;2023-01-29T15:43:26;18.90;42.20
10654;DHT22;5375;51.250;6.776;2023-01-29T15:45:57;18.90;42.80
10654;DHT22;5375;51.250;6.776;2023-01-29T15:48:33;18.90;42.20
10654;DHT22;5375;51.250;6.776;2023-01-29T15:50:59;18.90;42.20
10654;DHT22;5375;51.250;6.776;2023-01-29T15:53:33;18.90;42.20
10654;DHT22;5375;51.250;6.776;2023-01-29T15:56:00;18.90;42.20
10654;DHT22;5375;51.250;6.776;2023-01-29T15:58:32;19.00;42.20
10654;DHT22;5375;51.250;6.776;2023-01-29T16:00:59;18.90;42.20
10654;DHT22;5375;51.250;6.776;2023-01-29T16:03:27;18.90;42.80
10654;DHT22;5375;51.250;6.776;2023-01-29T16:05:55;18.90;42.20
10654;DHT22;5375;51.250;6.776;2023-01-29T16:08:23;18.90;42.10
10654;DHT22;5375;51.250;6.776;2023-01-29T16:10:54;18.90;42.10
10654;DHT22;5375;51.250;6.776;2023-01-29T16:13:26;18.90;42.10
10654;DHT22;5375;51.250;6.776;2023-01-29T16:16:02;18.90;42.20
10654;DHT22;5375;51.250;6.776;2023-01-29T16:18:37;18.90;42.10
10654;DHT22;5375;51.250;6.776;2023-01-29T16:23:43;18.90;42.20
10654;DHT22;5375;51.250;6.776;2023-01-29T16:26:15;18.90;42.20
10654;DHT22;5375;51.250;6.776;2023-01-29T16:28:42;18.90;42.20
10654;DHT22;5375;51.250;6.776;2023-01-29T16:31:09;18.90;42.20
10654;DHT22;5375;51.250;6.776;2023-01-29T16:33:40;18.90;42.20
10654;DHT22;5375;51.250;6.776;2023-01-29T16:36:15;19.00;42.30
10654;DHT22;5375;51.250;6.776;2023-01-29T16:38:46;19.00;42.30
10654;DHT22;5375;51.250;6.776;2023-01-29T16:41:26;19.00;42.30
10654;DHT22;5375;51.250;6.776;2023-01-29T16:46:37;19.00;42.40
10654;DHT22;5375;51.250;6.776;2023-01-29T16:51:50;19.00;42.40
10654;DHT22;5375;51.250;6.776;2023-01-29T16:54:20;19.00;42.40
10654;DHT22;5375;51.250;6.776;2023-01-29T16:56:53;19.00;42.50
10654;DHT22;5375;51.250;6.776;2023-01-29T16:59:31;19.00;42.50
10654;DHT22;5375;51.250;6.776;2023-01-29T17:01:57;19.00;42.50
10654;DHT22;5375;51.250;6.776;2023-01-29T17:04:23;19.00;42.50
10654;DHT22;5375;51.250;6.776;2023-01-29T17:06:54;19.00;42.50
10654;DHT22;5375;51.250;6.776;2023-01-29T17:09:28;19.10;42.60
10654;DHT22;5375;51.250;6.776;2023-01-29T17:11:58;19.00;42.50
10654;DHT22;5375;51.250;6.776;2023-01-29T17:14:25;18.90;42.50
10654;DHT22;5375;51.250;6.776;2023-01-29T17:17:06;19.00;42.50
10654;DHT22;5375;51.250;6.776;2023-01-29T17:19:40;19.00;42.40
10654;DHT22;5375;51.250;6.776;2023-01-29T17:22:06;19.00;42.40
10654;DHT22;5375;51.250;6.776;2023-01-29T17:24:42;19.00;42.40
10654;DHT22;5375;51.250;6.776;2023-01-29T17:27:25;19.00;42.40
10654;DHT22;5375;51.250;6.776;2023-01-29T17:29:51;19.00;42.30
10654;DHT22;5375;51.250;6.776;2023-01-29T17:32:17;19.00;42.30
10654;DHT22;5375;51.250;6.776;2023-01-29T17:34:44;19.00;42.30
10654;DHT22;5375;51.250;6.776;2023-01-29T17:37:12;19.00;42.30
10654;DHT22;5375;51.250;6.776;2023-01-29T17:39:38;19.00;42.30
10654;DHT22;5375;51.250;6.776;2023-01-29T17:42:20;19.00;42.30
10654;DHT22;5375;51.250;6.776;2023-01-29T17:44:46;19.00;42.30
10654;DHT22;5375;51.250;6.776;2023-01-29T17:47:13;19.00;42.30
10654;DHT22;5375;51.250;6.776;2023-01-29T17:49:41;19.00;42.20
10654;DHT22;5375;51.250;6.776;2023-01-29T17:52:07;19.00;42.20
10654;DHT22;5375;51.250;6.776;2023-01-29T17:54:34;19.00;42.20
10654;DHT22;5375;51.250;6.776;2023-01-29T17:56:59;19.00;42.20
10654;DHT22;5375;51.250;6.776;2023-01-29T17:59:30;19.00;42.20
10654;DHT22;5375;51.250;6.776;2023-01-29T18:01:55;19.00;42.20
10654;DHT22;5375;51.250;6.776;2023-01-29T18:04:21;19.00;42.20
10654;DHT22;5375;51.250;6.776;2023-01-29T18:06:48;19.00;42.20
10654;DHT22;5375;51.250;6.776;2023-01-29T18:09:16;19.00;42.10
10654;DHT22;5375;51.250;6.776;2023-01-29T18:11:45;18.90;42.10
10654;DHT22;5375;51.250;6.776;2023-01-29T18:14:10;19.00;42.10
10654;DHT22;5375;51.250;6.776;2023-01-29T18:16:40;18.90;42.00
10654;DHT22;5375;51.250;6.776;2023-01-29T18:19:25;19.00;42.10
10654;DHT22;5375;51.250;6.776;2023-01-29T18:21:55;19.00;42.00
10654;DHT22;5375;51.250;6.776;2023-01-29T18:24:21;19.00;42.00
10654;DHT22;5375;51.250;6.776;2023-01-29T18:26:47;19.00;42.10
10654;DHT22;5375;51.250;6.776;2023-01-29T18:29:13;19.00;42.10